sensor_id;sensor_type;location;lat;lon;timestamp;pressure;altitude;pressure_sealevel;temperature;humidity
73151;BME280;61354;50.758;6.106;2023-03-01T00:01:04;100484.50;;;-1.57;82.42
73151;BME280;61354;50.758;6.106;2023-03-01T00:03:30;100483.03;;;-1.48;82.06
73151;BME280;61354;50.758;6.106;2023-03-01T00:05:55;100480.34;;;-1.60;82.36
73151;BME280;61354;50.758;6.106;2023-03-01T00:08:21;100476.22;;;-1.62;82.99
73151;BME280;61354;50.758;6.106;2023-03-01T00:10:46;100483.53;;;-1.80;83.40
73151;BME280;61354;50.758;6.106;2023-03-01T00:13:47;100477.28;;;-1.92;83.35
73151;BME280;61354;50.758;6.106;2023-03-01T00:21:51;100461.06;;;-1.87;82.76
73151;BME280;61354;50.758;6.106;2023-03-01T00:25:54;100468.16;;;-1.57;82.90
73151;BME280;61354;50.758;6.106;2023-03-01T00:37:29;100487.63;;;-1.65;82.37
73151;BME280;61354;50.758;6.106;2023-03-01T00:44:34;100477.84;;;-1.78;82.01
73151;BME280;61354;50.758;6.106;2023-03-01T00:46:59;100471.06;;;-1.76;81.59
73151;BME280;61354;50.758;6.106;2023-03-01T00:49:25;100481.00;;;-1.69;81.10
73151;BME280;61354;50.758;6.106;2023-03-01T01:06:43;100482.63;;;-2.26;84.64
73151;BME280;61354;50.758;6.106;2023-03-01T01:09:15;100475.56;;;-1.98;84.05
73151;BME280;61354;50.758;6.106;2023-03-01T01:11:45;100473.59;;;-2.14;84.18
73151;BME280;61354;50.758;6.106;2023-03-01T01:14:11;100467.69;;;-2.11;84.11
73151;BME280;61354;50.758;6.106;2023-03-01T01:16:37;100459.31;;;-1.93;83.73
73151;BME280;61354;50.758;6.106;2023-03-01T01:19:03;100473.03;;;-1.88;83.36
73151;BME280;61354;50.758;6.106;2023-03-01T01:21:29;100459.56;;;-1.94;83.55
73151;BME280;61354;50.758;6.106;2023-03-01T01:23:55;100459.13;;;-2.03;83.68
73151;BME280;61354;50.758;6.106;2023-03-01T01:26:23;100460.63;;;-1.95;83.14
73151;BME280;61354;50.758;6.106;2023-03-01T01:28:51;100454.06;;;-2.11;83.53
73151;BME280;61354;50.758;6.106;2023-03-01T01:31:18;100446.28;;;-1.91;82.82
73151;BME280;61354;50.758;6.106;2023-03-01T01:33:44;100444.06;;;-2.22;83.13
73151;BME280;61354;50.758;6.106;2023-03-01T01:36:10;100441.25;;;-2.39;84.74
73151;BME280;61354;50.758;6.106;2023-03-01T01:38:37;100435.00;;;-2.40;84.14
73151;BME280;61354;50.758;6.106;2023-03-01T01:41:03;100439.72;;;-2.35;84.97
73151;BME280;61354;50.758;6.106;2023-03-01T01:43:35;100430.00;;;-2.31;84.78
73151;BME280;61354;50.758;6.106;2023-03-01T01:46:06;100440.94;;;-2.14;84.96
73151;BME280;61354;50.758;6.106;2023-03-01T01:48:47;100430.47;;;-2.34;85.07
73151;BME280;61354;50.758;6.106;2023-03-01T01:51:18;100429.34;;;-2.50;85.48
73151;BME280;61354;50.758;6.106;2023-03-01T01:53:49;100423.78;;;-2.55;86.37
73151;BME280;61354;50.758;6.106;2023-03-01T01:56:16;100420.72;;;-2.59;85.96
73151;BME280;61354;50.758;6.106;2023-03-01T01:58:44;100406.78;;;-2.62;86.12
73151;BME280;61354;50.758;6.106;2023-03-01T02:01:11;100414.00;;;-2.56;86.04
73151;BME280;61354;50.758;6.106;2023-03-01T02:03:39;100406.59;;;-2.96;87.57
73151;BME280;61354;50.758;6.106;2023-03-01T02:06:16;100409.13;;;-2.54;86.63
73151;BME280;61354;50.758;6.106;2023-03-01T02:08:45;100404.44;;;-2.30;85.75
73151;BME280;61354;50.758;6.106;2023-03-01T02:11:13;100395.75;;;-2.15;84.74
73151;BME280;61354;50.758;6.106;2023-03-01T02:13:40;100393.13;;;-2.10;83.65
73151;BME280;61354;50.758;6.106;2023-03-01T02:16:11;100391.66;;;-2.01;83.84
73151;BME280;61354;50.758;6.106;2023-03-01T02:18:40;100392.34;;;-1.94;83.29
73151;BME280;61354;50.758;6.106;2023-03-01T02:27:21;100375.56;;;-2.19;84.04
73151;BME280;61354;50.758;6.106;2023-03-01T02:29:50;100374.09;;;-2.39;85.23
73151;BME280;61354;50.758;6.106;2023-03-01T02:32:16;100385.31;;;-2.35;85.00
73151;BME280;61354;50.758;6.106;2023-03-01T02:34:52;100378.69;;;-2.39;84.96
73151;BME280;61354;50.758;6.106;2023-03-01T02:37:20;100377.09;;;-2.52;85.46
73151;BME280;61354;50.758;6.106;2023-03-01T02:39:55;100381.94;;;-2.54;85.22
73151;BME280;61354;50.758;6.106;2023-03-01T02:42:26;100372.22;;;-2.50;85.98
73151;BME280;61354;50.758;6.106;2023-03-01T02:44:53;100370.22;;;-2.55;85.43
73151;BME280;61354;50.758;6.106;2023-03-01T02:47:19;100376.28;;;-2.53;85.13
73151;BME280;61354;50.758;6.106;2023-03-01T02:49:44;100373.38;;;-2.46;84.82
73151;BME280;61354;50.758;6.106;2023-03-01T02:57:27;100367.25;;;-2.53;84.54
73151;BME280;61354;50.758;6.106;2023-03-01T02:59:54;100376.97;;;-2.57;85.23
73151;BME280;61354;50.758;6.106;2023-03-01T03:02:28;100371.81;;;-2.70;85.64
73151;BME280;61354;50.758;6.106;2023-03-01T03:05:12;100369.81;;;-2.87;86.19
73151;BME280;61354;50.758;6.106;2023-03-01T03:07:43;100369.28;;;-2.48;84.62
73151;BME280;61354;50.758;6.106;2023-03-01T03:10:21;100372.50;;;-2.63;85.17
73151;BME280;61354;50.758;6.106;2023-03-01T03:12:58;100383.50;;;-2.70;85.04
73151;BME280;61354;50.758;6.106;2023-03-01T03:15:25;100375.31;;;-2.58;85.33
73151;BME280;61354;50.758;6.106;2023-03-01T03:17:52;100374.50;;;-2.59;85.14
73151;BME280;61354;50.758;6.106;2023-03-01T03:20:20;100380.94;;;-2.88;86.72
73151;BME280;61354;50.758;6.106;2023-03-01T03:22:49;100374.31;;;-2.81;86.36
73151;BME280;61354;50.758;6.106;2023-03-01T03:25:17;100373.84;;;-2.78;86.12
73151;BME280;61354;50.758;6.106;2023-03-01T03:27:44;100363.09;;;-2.72;86.03
73151;BME280;61354;50.758;6.106;2023-03-01T03:30:16;100368.28;;;-2.83;86.14
73151;BME280;61354;50.758;6.106;2023-03-01T03:32:44;100369.47;;;-2.90;86.30
73151;BME280;61354;50.758;6.106;2023-03-01T03:35:25;100364.44;;;-3.10;88.06
73151;BME280;61354;50.758;6.106;2023-03-01T03:37:52;100364.19;;;-2.97;87.11
73151;BME280;61354;50.758;6.106;2023-03-01T03:40:40;100357.91;;;-2.86;86.38
73151;BME280;61354;50.758;6.106;2023-03-01T03:43:09;100367.81;;;-2.80;86.99
73151;BME280;61354;50.758;6.106;2023-03-01T03:45:35;100367.75;;;-3.08;87.04
73151;BME280;61354;50.758;6.106;2023-03-01T03:48:03;100357.22;;;-3.16;87.42
73151;BME280;61354;50.758;6.106;2023-03-01T03:50:30;100352.28;;;-3.66;88.63
73151;BME280;61354;50.758;6.106;2023-03-01T03:52:56;100349.94;;;-3.51;88.76
73151;BME280;61354;50.758;6.106;2023-03-01T03:55:21;100346.84;;;-3.19;87.77
73151;BME280;61354;50.758;6.106;2023-03-01T03:57:47;100338.47;;;-3.53;88.11
73151;BME280;61354;50.758;6.106;2023-03-01T04:00:21;100345.56;;;-3.29;87.89
73151;BME280;61354;50.758;6.106;2023-03-01T04:02:50;100339.19;;;-3.46;87.75
73151;BME280;61354;50.758;6.106;2023-03-01T04:05:18;100339.41;;;-3.12;87.48
73151;BME280;61354;50.758;6.106;2023-03-01T04:07:44;100337.50;;;-3.12;86.78
73151;BME280;61354;50.758;6.106;2023-03-01T04:10:17;100343.66;;;-3.28;87.99
73151;BME280;61354;50.758;6.106;2023-03-01T04:12:43;100343.44;;;-3.38;88.63
73151;BME280;61354;50.758;6.106;2023-03-01T04:15:10;100343.44;;;-3.50;88.99
73151;BME280;61354;50.758;6.106;2023-03-01T04:17:44;100343.19;;;-3.37;88.72
73151;BME280;61354;50.758;6.106;2023-03-01T04:20:11;100330.78;;;-3.09;88.58
73151;BME280;61354;50.758;6.106;2023-03-01T04:22:38;100333.38;;;-3.14;87.62
73151;BME280;61354;50.758;6.106;2023-03-01T04:25:05;100336.69;;;-3.12;87.20
73151;BME280;61354;50.758;6.106;2023-03-01T04:27:35;100330.78;;;-3.21;87.48
73151;BME280;61354;50.758;6.106;2023-03-01T04:30:02;100328.97;;;-3.04;87.41
73151;BME280;61354;50.758;6.106;2023-03-01T04:32:28;100319.44;;;-3.06;87.08
73151;BME280;61354;50.758;6.106;2023-03-01T04:34:54;100323.34;;;-3.26;88.37
73151;BME280;61354;50.758;6.106;2023-03-01T04:37:20;100312.03;;;-3.46;88.46
73151;BME280;61354;50.758;6.106;2023-03-01T04:39:45;100311.69;;;-3.61;89.13
73151;BME280;61354;50.758;6.106;2023-03-01T04:42:11;100302.59;;;-3.32;89.02
73151;BME280;61354;50.758;6.106;2023-03-01T04:44:37;100302.44;;;-3.25;88.10
73151;BME280;61354;50.758;6.106;2023-03-01T04:47:03;100299.34;;;-3.05;87.40
73151;BME280;61354;50.758;6.106;2023-03-01T04:49:28;100302.34;;;-3.30;87.31
73151;BME280;61354;50.758;6.106;2023-03-01T04:51:54;100305.53;;;-3.21;88.62
73151;BME280;61354;50.758;6.106;2023-03-01T04:54:20;100315.94;;;-3.54;89.52
73151;BME280;61354;50.758;6.106;2023-03-01T04:56:45;100308.13;;;-3.50;89.20
73151;BME280;61354;50.758;6.106;2023-03-01T04:59:11;100310.38;;;-3.35;89.16
73151;BME280;61354;50.758;6.106;2023-03-01T05:01:38;100310.38;;;-3.59;89.38
73151;BME280;61354;50.758;6.106;2023-03-01T05:04:04;100305.78;;;-3.58;89.29
73151;BME280;61354;50.758;6.106;2023-03-01T05:06:30;100294.19;;;-3.30;88.82
73151;BME280;61354;50.758;6.106;2023-03-01T05:08:56;100304.59;;;-3.39;88.12
73151;BME280;61354;50.758;6.106;2023-03-01T05:11:23;100306.13;;;-3.43;88.12
73151;BME280;61354;50.758;6.106;2023-03-01T05:13:48;100305.53;;;-3.45;88.29
73151;BME280;61354;50.758;6.106;2023-03-01T05:16:18;100295.63;;;-3.28;87.97
73151;BME280;61354;50.758;6.106;2023-03-01T05:18:45;100299.47;;;-3.23;87.46
73151;BME280;61354;50.758;6.106;2023-03-01T05:21:13;100286.06;;;-3.42;88.28
73151;BME280;61354;50.758;6.106;2023-03-01T05:23:41;100301.78;;;-3.44;88.56
73151;BME280;61354;50.758;6.106;2023-03-01T05:26:07;100302.59;;;-3.43;88.76
73151;BME280;61354;50.758;6.106;2023-03-01T05:28:33;100298.91;;;-3.26;87.76
73151;BME280;61354;50.758;6.106;2023-03-01T05:30:59;100301.78;;;-3.44;87.93
73151;BME280;61354;50.758;6.106;2023-03-01T05:33:26;100301.06;;;-3.51;88.54
73151;BME280;61354;50.758;6.106;2023-03-01T05:35:52;100290.06;;;-3.44;88.09
73151;BME280;61354;50.758;6.106;2023-03-01T05:38:19;100289.94;;;-3.38;88.69
73151;BME280;61354;50.758;6.106;2023-03-01T05:40:46;100293.28;;;-3.36;88.05
73151;BME280;61354;50.758;6.106;2023-03-01T05:43:14;100290.56;;;-3.47;89.23
73151;BME280;61354;50.758;6.106;2023-03-01T05:45:40;100303.19;;;-3.53;87.81
73151;BME280;61354;50.758;6.106;2023-03-01T05:48:08;100297.16;;;-3.67;88.52
73151;BME280;61354;50.758;6.106;2023-03-01T05:50:36;100298.34;;;-3.63;89.18
73151;BME280;61354;50.758;6.106;2023-03-01T05:53:19;100302.25;;;-3.47;87.66
73151;BME280;61354;50.758;6.106;2023-03-01T05:55:47;100305.19;;;-3.60;88.25
73151;BME280;61354;50.758;6.106;2023-03-01T05:58:15;100308.25;;;-3.57;88.41
73151;BME280;61354;50.758;6.106;2023-03-01T06:00:42;100304.97;;;-3.47;87.63
73151;BME280;61354;50.758;6.106;2023-03-01T06:03:10;100310.75;;;-3.67;88.35
73151;BME280;61354;50.758;6.106;2023-03-01T06:05:36;100309.91;;;-3.79;89.40
73151;BME280;61354;50.758;6.106;2023-03-01T06:08:02;100311.47;;;-3.48;88.35
73151;BME280;61354;50.758;6.106;2023-03-01T06:10:28;100301.53;;;-3.54;87.51
73151;BME280;61354;50.758;6.106;2023-03-01T06:12:54;100306.25;;;-3.61;87.68
73151;BME280;61354;50.758;6.106;2023-03-01T06:15:20;100301.06;;;-3.51;87.95
73151;BME280;61354;50.758;6.106;2023-03-01T06:17:46;100300.72;;;-3.55;87.95
73151;BME280;61354;50.758;6.106;2023-03-01T06:20:16;100307.91;;;-3.60;88.45
73151;BME280;61354;50.758;6.106;2023-03-01T06:22:42;100294.22;;;-3.89;88.71
73151;BME280;61354;50.758;6.106;2023-03-01T06:25:09;100297.53;;;-3.75;88.85
73151;BME280;61354;50.758;6.106;2023-03-01T06:27:35;100303.06;;;-3.93;90.30
73151;BME280;61354;50.758;6.106;2023-03-01T06:30:02;100306.38;;;-3.80;89.81
73151;BME280;61354;50.758;6.106;2023-03-01T06:32:27;100298.81;;;-3.66;89.17
73151;BME280;61354;50.758;6.106;2023-03-01T06:34:53;100297.50;;;-3.87;89.86
73151;BME280;61354;50.758;6.106;2023-03-01T06:37:19;100299.03;;;-3.79;89.46
73151;BME280;61354;50.758;6.106;2023-03-01T06:39:44;100295.16;;;-3.71;89.33
73151;BME280;61354;50.758;6.106;2023-03-01T06:42:10;100294.91;;;-3.23;87.83
73151;BME280;61354;50.758;6.106;2023-03-01T06:44:36;100288.03;;;-3.26;87.28
73151;BME280;61354;50.758;6.106;2023-03-01T06:47:02;100291.03;;;-3.51;88.68
73151;BME280;61354;50.758;6.106;2023-03-01T06:49:28;100281.22;;;-3.40;88.31
73151;BME280;61354;50.758;6.106;2023-03-01T06:51:56;100285.25;;;-3.54;88.85
73151;BME280;61354;50.758;6.106;2023-03-01T06:54:21;100281.44;;;-3.30;88.12
73151;BME280;61354;50.758;6.106;2023-03-01T06:56:48;100281.91;;;-3.33;87.77
73151;BME280;61354;50.758;6.106;2023-03-01T06:59:14;100285.59;;;-3.97;90.44
73151;BME280;61354;50.758;6.106;2023-03-01T07:01:40;100281.94;;;-3.68;89.24
73151;BME280;61354;50.758;6.106;2023-03-01T07:04:05;100281.81;;;-3.38;88.92
73151;BME280;61354;50.758;6.106;2023-03-01T07:06:31;100288.06;;;-3.49;88.36
73151;BME280;61354;50.758;6.106;2023-03-01T07:08:57;100295.38;;;-3.50;88.92
73151;BME280;61354;50.758;6.106;2023-03-01T07:11:22;100289.00;;;-3.79;90.63
73151;BME280;61354;50.758;6.106;2023-03-01T07:13:48;100286.75;;;-3.35;88.85
73151;BME280;61354;50.758;6.106;2023-03-01T07:16:14;100280.47;;;-3.23;88.38
73151;BME280;61354;50.758;6.106;2023-03-01T07:18:40;100283.53;;;-3.08;88.16
73151;BME280;61354;50.758;6.106;2023-03-01T07:21:07;100286.22;;;-3.08;88.39
73151;BME280;61354;50.758;6.106;2023-03-01T07:23:33;100282.44;;;-3.07;88.07
73151;BME280;61354;50.758;6.106;2023-03-01T07:25:59;100277.81;;;-2.95;88.52
73151;BME280;61354;50.758;6.106;2023-03-01T07:28:26;100282.75;;;-2.92;88.29
73151;BME280;61354;50.758;6.106;2023-03-01T07:30:52;100281.22;;;-2.88;88.62
73151;BME280;61354;50.758;6.106;2023-03-01T07:33:17;100281.28;;;-3.11;89.07
73151;BME280;61354;50.758;6.106;2023-03-01T07:35:43;100272.81;;;-2.86;88.74
73151;BME280;61354;50.758;6.106;2023-03-01T07:38:08;100271.31;;;-2.94;88.53
73151;BME280;61354;50.758;6.106;2023-03-01T07:40:34;100270.94;;;-2.86;88.38
73151;BME280;61354;50.758;6.106;2023-03-01T07:43:00;100275.31;;;-2.85;88.93
73151;BME280;61354;50.758;6.106;2023-03-01T07:45:29;100279.66;;;-2.84;88.70
73151;BME280;61354;50.758;6.106;2023-03-01T07:47:55;100276.38;;;-2.86;88.60
73151;BME280;61354;50.758;6.106;2023-03-01T07:50:22;100279.06;;;-3.14;90.60
73151;BME280;61354;50.758;6.106;2023-03-01T07:52:48;100275.22;;;-2.90;89.69
73151;BME280;61354;50.758;6.106;2023-03-01T07:55:15;100276.56;;;-2.76;89.07
73151;BME280;61354;50.758;6.106;2023-03-01T07:57:42;100271.34;;;-2.65;88.65
73151;BME280;61354;50.758;6.106;2023-03-01T08:00:10;100277.44;;;-2.58;88.58
73151;BME280;61354;50.758;6.106;2023-03-01T08:02:36;100279.06;;;-2.57;88.28
73151;BME280;61354;50.758;6.106;2023-03-01T08:05:02;100280.44;;;-2.43;87.50
73151;BME280;61354;50.758;6.106;2023-03-01T08:07:28;100267.41;;;-2.41;87.14
73151;BME280;61354;50.758;6.106;2023-03-01T08:09:53;100269.25;;;-2.30;86.65
73151;BME280;61354;50.758;6.106;2023-03-01T08:12:19;100261.28;;;-2.19;86.23
73151;BME280;61354;50.758;6.106;2023-03-01T08:14:45;100258.56;;;-2.19;85.51
73151;BME280;61354;50.758;6.106;2023-03-01T08:17:13;100258.56;;;-2.03;85.68
73151;BME280;61354;50.758;6.106;2023-03-01T08:19:39;100246.75;;;-2.08;86.24
73151;BME280;61354;50.758;6.106;2023-03-01T08:22:05;100250.00;;;-2.11;85.53
73151;BME280;61354;50.758;6.106;2023-03-01T08:24:31;100256.00;;;-2.09;84.52
73151;BME280;61354;50.758;6.106;2023-03-01T08:26:56;100249.66;;;-1.98;84.80
73151;BME280;61354;50.758;6.106;2023-03-01T08:29:22;100249.97;;;-1.94;84.74
73151;BME280;61354;50.758;6.106;2023-03-01T08:31:50;100250.13;;;-1.84;84.18
73151;BME280;61354;50.758;6.106;2023-03-01T08:34:17;100254.75;;;-1.85;83.74
73151;BME280;61354;50.758;6.106;2023-03-01T08:36:45;100253.00;;;-1.91;84.43
73151;BME280;61354;50.758;6.106;2023-03-01T08:39:13;100254.31;;;-1.77;83.24
73151;BME280;61354;50.758;6.106;2023-03-01T08:41:39;100252.28;;;-1.69;82.26
73151;BME280;61354;50.758;6.106;2023-03-01T08:44:06;100257.72;;;-1.69;81.84
73151;BME280;61354;50.758;6.106;2023-03-01T08:46:37;100254.56;;;-1.61;82.41
73151;BME280;61354;50.758;6.106;2023-03-01T08:49:04;100253.06;;;-1.52;82.66
73151;BME280;61354;50.758;6.106;2023-03-01T08:51:32;100252.69;;;-1.39;82.08
73151;BME280;61354;50.758;6.106;2023-03-01T08:54:07;100248.06;;;-1.38;81.33
73151;BME280;61354;50.758;6.106;2023-03-01T08:56:33;100252.53;;;-1.32;81.24
73151;BME280;61354;50.758;6.106;2023-03-01T08:58:59;100247.38;;;-1.29;81.53
73151;BME280;61354;50.758;6.106;2023-03-01T09:01:25;100244.28;;;-1.15;81.32
73151;BME280;61354;50.758;6.106;2023-03-01T09:03:51;100238.25;;;-1.17;81.08
73151;BME280;61354;50.758;6.106;2023-03-01T09:06:17;100236.16;;;-1.10;81.47
73151;BME280;61354;50.758;6.106;2023-03-01T09:08:44;100232.53;;;-0.94;81.66
73151;BME280;61354;50.758;6.106;2023-03-01T09:11:12;100224.78;;;-0.80;80.61
73151;BME280;61354;50.758;6.106;2023-03-01T09:13:38;100226.22;;;-0.72;80.15
73151;BME280;61354;50.758;6.106;2023-03-01T09:16:06;100223.03;;;-0.64;80.54
73151;BME280;61354;50.758;6.106;2023-03-01T09:18:32;100225.22;;;-0.66;80.09
73151;BME280;61354;50.758;6.106;2023-03-01T09:21:08;100225.25;;;-0.61;80.16
73151;BME280;61354;50.758;6.106;2023-03-01T09:23:39;100233.22;;;-0.55;79.55
73151;BME280;61354;50.758;6.106;2023-03-01T09:26:07;100235.44;;;-0.52;79.71
73151;BME280;61354;50.758;6.106;2023-03-01T09:28:33;100236.84;;;-0.49;78.51
73151;BME280;61354;50.758;6.106;2023-03-01T09:31:01;100229.88;;;-0.35;78.17
73151;BME280;61354;50.758;6.106;2023-03-01T09:33:27;100229.88;;;-0.35;78.34
73151;BME280;61354;50.758;6.106;2023-03-01T09:36:14;100231.22;;;-0.37;77.47
73151;BME280;61354;50.758;6.106;2023-03-01T09:38:40;100226.16;;;-0.23;78.09
73151;BME280;61354;50.758;6.106;2023-03-01T09:44:03;100224.31;;;-0.13;77.05
73151;BME280;61354;50.758;6.106;2023-03-01T09:46:35;100220.75;;;-0.13;76.20
73151;BME280;61354;50.758;6.106;2023-03-01T09:49:28;100213.66;;;-0.14;76.61
73151;BME280;61354;50.758;6.106;2023-03-01T09:54:40;100218.63;;;-0.11;75.01
73151;BME280;61354;50.758;6.106;2023-03-01T10:00:22;100215.06;;;-0.12;74.87
73151;BME280;61354;50.758;6.106;2023-03-01T10:02:52;100210.19;;;-0.05;74.49
73151;BME280;61354;50.758;6.106;2023-03-01T10:05:44;100213.19;;;-0.06;75.36
73151;BME280;61354;50.758;6.106;2023-03-01T10:08:33;100212.50;;;-0.23;74.95
73151;BME280;61354;50.758;6.106;2023-03-01T10:11:02;100211.56;;;-0.07;74.60
73151;BME280;61354;50.758;6.106;2023-03-01T10:16:26;100212.00;;;-0.20;75.24
73151;BME280;61354;50.758;6.106;2023-03-01T10:19:00;100205.28;;;-0.08;75.54
73151;BME280;61354;50.758;6.106;2023-03-01T10:21:27;100207.72;;;-0.06;74.55
73151;BME280;61354;50.758;6.106;2023-03-01T10:24:22;100203.34;;;-0.07;75.03
73151;BME280;61354;50.758;6.106;2023-03-01T10:26:55;100196.53;;;-0.05;74.78
73151;BME280;61354;50.758;6.106;2023-03-01T10:29:27;100197.13;;;0.03;74.14
73151;BME280;61354;50.758;6.106;2023-03-01T10:31:55;100201.03;;;0.12;74.53
73151;BME280;61354;50.758;6.106;2023-03-01T10:34:28;100199.16;;;0.17;74.46
73151;BME280;61354;50.758;6.106;2023-03-01T10:36:58;100194.81;;;0.21;74.77
73151;BME280;61354;50.758;6.106;2023-03-01T10:39:26;100196.50;;;0.33;73.98
73151;BME280;61354;50.758;6.106;2023-03-01T10:42:02;100193.56;;;0.44;73.60
73151;BME280;61354;50.758;6.106;2023-03-01T10:47:01;100183.75;;;0.43;73.01
73151;BME280;61354;50.758;6.106;2023-03-01T10:49:27;100190.31;;;0.42;73.04
73151;BME280;61354;50.758;6.106;2023-03-01T10:51:53;100178.34;;;0.59;73.09
73151;BME280;61354;50.758;6.106;2023-03-01T10:54:26;100175.66;;;0.74;72.24
73151;BME280;61354;50.758;6.106;2023-03-01T10:56:55;100176.50;;;0.74;71.44
73151;BME280;61354;50.758;6.106;2023-03-01T10:59:31;100175.44;;;0.91;72.78
73151;BME280;61354;50.758;6.106;2023-03-01T11:02:17;100171.09;;;0.95;71.64
73151;BME280;61354;50.758;6.106;2023-03-01T11:05:44;100165.13;;;1.08;72.58
73151;BME280;61354;50.758;6.106;2023-03-01T11:12:51;100152.56;;;1.17;70.42
73151;BME280;61354;50.758;6.106;2023-03-01T11:15:27;100144.34;;;1.22;69.55
73151;BME280;61354;50.758;6.106;2023-03-01T11:17:55;100142.19;;;1.35;68.98
73151;BME280;61354;50.758;6.106;2023-03-01T11:20:29;100152.03;;;1.36;68.61
73151;BME280;61354;50.758;6.106;2023-03-01T11:22:59;100140.53;;;1.49;69.58
73151;BME280;61354;50.758;6.106;2023-03-01T11:25:31;100134.53;;;1.57;67.84
73151;BME280;61354;50.758;6.106;2023-03-01T11:27:59;100123.03;;;1.50;67.62
73151;BME280;61354;50.758;6.106;2023-03-01T11:36:10;100119.47;;;1.75;67.16
73151;BME280;61354;50.758;6.106;2023-03-01T11:38:39;100116.44;;;1.87;66.79
73151;BME280;61354;50.758;6.106;2023-03-01T11:41:20;100117.28;;;1.87;67.53
73151;BME280;61354;50.758;6.106;2023-03-01T12:02:40;100098.25;;;2.27;66.06
73151;BME280;61354;50.758;6.106;2023-03-01T12:05:26;100086.41;;;2.36;65.18
73151;BME280;61354;50.758;6.106;2023-03-01T12:08:31;100099.81;;;2.48;63.89
73151;BME280;61354;50.758;6.106;2023-03-01T12:11:28;100090.50;;;2.49;63.25
73151;BME280;61354;50.758;6.106;2023-03-01T12:34:13;100052.44;;;2.87;63.54
73151;BME280;61354;50.758;6.106;2023-03-01T12:50:28;100049.28;;;3.09;64.23
73151;BME280;61354;50.758;6.106;2023-03-01T12:52:58;100057.28;;;3.00;64.65
73151;BME280;61354;50.758;6.106;2023-03-01T12:55:34;100051.00;;;3.34;64.73
73151;BME280;61354;50.758;6.106;2023-03-01T13:11:49;100028.47;;;3.37;60.28
73151;BME280;61354;50.758;6.106;2023-03-01T13:16:49;100015.50;;;3.42;61.06
73151;BME280;61354;50.758;6.106;2023-03-01T13:19:19;100014.25;;;3.59;61.64
73151;BME280;61354;50.758;6.106;2023-03-01T13:21:47;100021.13;;;3.56;60.24
73151;BME280;61354;50.758;6.106;2023-03-01T13:29:48;100012.22;;;3.69;59.68
73151;BME280;61354;50.758;6.106;2023-03-01T13:35:00;100009.34;;;3.80;61.11
73151;BME280;61354;50.758;6.106;2023-03-01T13:37:29;100011.75;;;3.86;60.89
73151;BME280;61354;50.758;6.106;2023-03-01T13:42:46;99996.03;;;3.92;60.53
73151;BME280;61354;50.758;6.106;2023-03-01T13:47:45;99993.09;;;3.83;60.59
73151;BME280;61354;50.758;6.106;2023-03-01T13:50:20;99994.97;;;3.88;60.89
73151;BME280;61354;50.758;6.106;2023-03-01T13:52:50;99986.31;;;3.99;59.80
73151;BME280;61354;50.758;6.106;2023-03-01T13:55:21;99986.19;;;4.10;59.43
73151;BME280;61354;50.758;6.106;2023-03-01T13:57:51;99989.09;;;4.18;59.90
73151;BME280;61354;50.758;6.106;2023-03-01T14:00:33;99987.13;;;4.24;60.05
73151;BME280;61354;50.758;6.106;2023-03-01T14:03:16;99991.56;;;4.20;58.78
73151;BME280;61354;50.758;6.106;2023-03-01T14:08:30;99986.31;;;4.23;58.39
73151;BME280;61354;50.758;6.106;2023-03-01T14:11:13;99988.78;;;4.44;58.13
73151;BME280;61354;50.758;6.106;2023-03-01T14:16:57;99969.53;;;4.44;58.51
73151;BME280;61354;50.758;6.106;2023-03-01T14:19:27;99970.69;;;4.38;57.26
73151;BME280;61354;50.758;6.106;2023-03-01T14:24:40;99978.22;;;4.32;57.15
73151;BME280;61354;50.758;6.106;2023-03-01T14:27:13;99962.97;;;4.40;56.79
73151;BME280;61354;50.758;6.106;2023-03-01T14:29:39;99964.91;;;4.58;57.18
73151;BME280;61354;50.758;6.106;2023-03-01T14:32:31;99958.56;;;4.39;56.18
73151;BME280;61354;50.758;6.106;2023-03-01T14:34:59;99951.59;;;4.46;56.02
73151;BME280;61354;50.758;6.106;2023-03-01T14:37:31;99948.34;;;4.44;57.33
73151;BME280;61354;50.758;6.106;2023-03-01T14:39:58;99937.56;;;4.48;55.69
73151;BME280;61354;50.758;6.106;2023-03-01T14:42:28;99947.13;;;4.51;56.17
73151;BME280;61354;50.758;6.106;2023-03-01T14:44:56;99944.25;;;4.42;55.41
73151;BME280;61354;50.758;6.106;2023-03-01T14:47:33;99935.25;;;4.55;56.13
73151;BME280;61354;50.758;6.106;2023-03-01T14:52:33;99927.00;;;4.55;56.11
73151;BME280;61354;50.758;6.106;2023-03-01T14:55:01;99931.41;;;4.56;56.75
73151;BME280;61354;50.758;6.106;2023-03-01T14:57:27;99924.78;;;4.57;55.77
73151;BME280;61354;50.758;6.106;2023-03-01T14:59:55;99922.03;;;4.57;56.50
73151;BME280;61354;50.758;6.106;2023-03-01T15:02:24;99913.84;;;4.52;55.88
73151;BME280;61354;50.758;6.106;2023-03-01T15:04:54;99909.13;;;4.71;57.11
73151;BME280;61354;50.758;6.106;2023-03-01T15:07:25;99906.09;;;4.73;54.97
73151;BME280;61354;50.758;6.106;2023-03-01T15:09:52;99905.66;;;4.66;54.90
73151;BME280;61354;50.758;6.106;2023-03-01T15:14:53;99910.69;;;4.78;55.25
73151;BME280;61354;50.758;6.106;2023-03-01T15:19:56;99909.72;;;4.68;54.77
73151;BME280;61354;50.758;6.106;2023-03-01T15:22:23;99914.63;;;4.71;54.46
73151;BME280;61354;50.758;6.106;2023-03-01T15:24:50;99909.34;;;4.75;54.33
73151;BME280;61354;50.758;6.106;2023-03-01T15:27:18;99917.91;;;4.73;54.02
73151;BME280;61354;50.758;6.106;2023-03-01T15:29:50;99901.63;;;4.77;54.19
73151;BME280;61354;50.758;6.106;2023-03-01T15:32:32;99905.59;;;4.85;53.49
73151;BME280;61354;50.758;6.106;2023-03-01T15:34:59;99906.59;;;5.08;53.85
73151;BME280;61354;50.758;6.106;2023-03-01T15:37:46;99893.63;;;4.94;53.86
73151;BME280;61354;50.758;6.106;2023-03-01T15:40:24;99890.28;;;5.11;54.09
73151;BME280;61354;50.758;6.106;2023-03-01T15:43:06;99888.56;;;5.15;54.41
73151;BME280;61354;50.758;6.106;2023-03-01T15:45:58;99898.44;;;5.16;53.54
73151;BME280;61354;50.758;6.106;2023-03-01T15:48:23;99900.06;;;5.17;53.04
73151;BME280;61354;50.758;6.106;2023-03-01T15:50:59;99889.91;;;5.32;54.20
73151;BME280;61354;50.758;6.106;2023-03-01T15:53:26;99886.84;;;5.33;53.79
73151;BME280;61354;50.758;6.106;2023-03-01T15:55:53;99875.34;;;5.31;53.72
73151;BME280;61354;50.758;6.106;2023-03-01T15:58:23;99883.38;;;5.28;53.41